sensor_id;sensor_type;location;lat;lon;timestamp;P1;durP1;ratioP1;P2;durP2;ratioP2
52798;SDS011;38667;42.872;74.622;2023-02-18T00:02:19;33.83;;;18.20;;
52798;SDS011;38667;42.872;74.622;2023-02-18T00:04:45;38.47;;;19.60;;
52798;SDS011;38667;42.872;74.622;2023-02-18T00:07:11;36.27;;;18.90;;
52798;SDS011;38667;42.872;74.622;2023-02-18T00:09:38;35.23;;;17.77;;
52798;SDS011;38667;42.872;74.622;2023-02-18T00:12:04;38.17;;;19.10;;
52798;SDS011;38667;42.872;74.622;2023-02-18T00:14:31;37.90;;;18.23;;
52798;SDS011;38667;42.872;74.622;2023-02-18T00:16:58;39.63;;;19.23;;
52798;SDS011;38667;42.872;74.622;2023-02-18T00:19:25;38.10;;;19.03;;
52798;SDS011;38667;42.872;74.622;2023-02-18T00:21:51;37.93;;;18.67;;
52798;SDS011;38667;42.872;74.622;2023-02-18T00:24:17;40.40;;;19.77;;
52798;SDS011;38667;42.872;74.622;2023-02-18T00:26:44;40.50;;;19.47;;
52798;SDS011;38667;42.872;74.622;2023-02-18T00:29:10;50.17;;;22.47;;
52798;SDS011;38667;42.872;74.622;2023-02-18T00:31:37;42.23;;;20.20;;
52798;SDS011;38667;42.872;74.622;2023-02-18T00:34:05;38.37;;;19.40;;
52798;SDS011;38667;42.872;74.622;2023-02-18T00:36:32;38.93;;;19.57;;
52798;SDS011;38667;42.872;74.622;2023-02-18T00:38:59;42.60;;;21.33;;
52798;SDS011;38667;42.872;74.622;2023-02-18T00:41:28;42.80;;;20.00;;
52798;SDS011;38667;42.872;74.622;2023-02-18T00:43:55;39.17;;;19.40;;
52798;SDS011;38667;42.872;74.622;2023-02-18T00:46:21;38.37;;;18.20;;
52798;SDS011;38667;42.872;74.622;2023-02-18T00:48:48;35.10;;;17.27;;
52798;SDS011;38667;42.872;74.622;2023-02-18T00:51:16;37.23;;;18.90;;
52798;SDS011;38667;42.872;74.622;2023-02-18T00:53:42;42.53;;;20.07;;
52798;SDS011;38667;42.872;74.622;2023-02-18T00:56:09;43.90;;;22.40;;
52798;SDS011;38667;42.872;74.622;2023-02-18T00:58:35;54.73;;;25.87;;
52798;SDS011;38667;42.872;74.622;2023-02-18T01:01:02;50.90;;;24.20;;
52798;SDS011;38667;42.872;74.622;2023-02-18T01:03:29;50.20;;;23.73;;
52798;SDS011;38667;42.872;74.622;2023-02-18T01:05:56;56.03;;;27.93;;
52798;SDS011;38667;42.872;74.622;2023-02-18T01:08:24;60.30;;;29.20;;
52798;SDS011;38667;42.872;74.622;2023-02-18T01:10:52;61.90;;;30.13;;
52798;SDS011;38667;42.872;74.622;2023-02-18T01:13:19;60.97;;;30.00;;
52798;SDS011;38667;42.872;74.622;2023-02-18T01:15:47;62.23;;;28.77;;
52798;SDS011;38667;42.872;74.622;2023-02-18T01:18:13;64.17;;;30.20;;
52798;SDS011;38667;42.872;74.622;2023-02-18T01:20:40;65.27;;;29.27;;
52798;SDS011;38667;42.872;74.622;2023-02-18T01:23:08;61.83;;;29.73;;
52798;SDS011;38667;42.872;74.622;2023-02-18T01:25:36;70.10;;;29.80;;
52798;SDS011;38667;42.872;74.622;2023-02-18T01:28:03;64.17;;;29.37;;
52798;SDS011;38667;42.872;74.622;2023-02-18T01:30:30;67.87;;;30.83;;
52798;SDS011;38667;42.872;74.622;2023-02-18T01:32:56;71.33;;;30.77;;
52798;SDS011;38667;42.872;74.622;2023-02-18T01:35:23;72.23;;;33.80;;
52798;SDS011;38667;42.872;74.622;2023-02-18T01:37:50;71.83;;;35.07;;
52798;SDS011;38667;42.872;74.622;2023-02-18T01:40:17;72.73;;;33.87;;
52798;SDS011;38667;42.872;74.622;2023-02-18T01:42:47;66.07;;;30.93;;
52798;SDS011;38667;42.872;74.622;2023-02-18T01:48:10;67.47;;;31.20;;
52798;SDS011;38667;42.872;74.622;2023-02-18T01:50:40;69.63;;;31.13;;
52798;SDS011;38667;42.872;74.622;2023-02-18T01:53:09;64.17;;;29.73;;
52798;SDS011;38667;42.872;74.622;2023-02-18T01:55:38;87.73;;;38.43;;
52798;SDS011;38667;42.872;74.622;2023-02-18T01:58:06;87.30;;;36.37;;
52798;SDS011;38667;42.872;74.622;2023-02-18T02:00:33;99.83;;;38.60;;
52798;SDS011;38667;42.872;74.622;2023-02-18T02:02:59;100.83;;;42.27;;
52798;SDS011;38667;42.872;74.622;2023-02-18T02:05:29;102.87;;;42.90;;
52798;SDS011;38667;42.872;74.622;2023-02-18T02:07:56;100.90;;;43.33;;
52798;SDS011;38667;42.872;74.622;2023-02-18T02:10:25;93.73;;;41.80;;
52798;SDS011;38667;42.872;74.622;2023-02-18T02:13:06;95.03;;;41.97;;
52798;SDS011;38667;42.872;74.622;2023-02-18T02:15:40;91.67;;;42.00;;
52798;SDS011;38667;42.872;74.622;2023-02-18T02:18:17;81.90;;;36.87;;
52798;SDS011;38667;42.872;74.622;2023-02-18T02:21:13;69.73;;;31.73;;
52798;SDS011;38667;42.872;74.622;2023-02-18T02:27:02;73.43;;;31.60;;
52798;SDS011;38667;42.872;74.622;2023-02-18T02:29:44;73.50;;;33.83;;
52798;SDS011;38667;42.872;74.622;2023-02-18T02:32:38;76.17;;;34.50;;
52798;SDS011;38667;42.872;74.622;2023-02-18T02:35:16;73.40;;;31.73;;
52798;SDS011;38667;42.872;74.622;2023-02-18T02:37:47;88.00;;;40.13;;
52798;SDS011;38667;42.872;74.622;2023-02-18T02:40:20;84.80;;;38.70;;
52798;SDS011;38667;42.872;74.622;2023-02-18T02:42:55;85.53;;;37.70;;
52798;SDS011;38667;42.872;74.622;2023-02-18T02:45:32;97.70;;;41.30;;
52798;SDS011;38667;42.872;74.622;2023-02-18T02:48:08;89.17;;;38.37;;
52798;SDS011;38667;42.872;74.622;2023-02-18T02:50:45;93.00;;;40.83;;
52798;SDS011;38667;42.872;74.622;2023-02-18T02:53:18;100.07;;;43.77;;
52798;SDS011;38667;42.872;74.622;2023-02-18T02:55:47;126.27;;;52.63;;
52798;SDS011;38667;42.872;74.622;2023-02-18T02:58:14;118.37;;;50.13;;
52798;SDS011;38667;42.872;74.622;2023-02-18T03:00:45;136.07;;;54.63;;
52798;SDS011;38667;42.872;74.622;2023-02-18T03:03:31;160.27;;;60.30;;
52798;SDS011;38667;42.872;74.622;2023-02-18T03:06:22;160.33;;;68.27;;
52798;SDS011;38667;42.872;74.622;2023-02-18T03:08:59;152.13;;;65.13;;
52798;SDS011;38667;42.872;74.622;2023-02-18T03:11:34;124.23;;;56.63;;
52798;SDS011;38667;42.872;74.622;2023-02-18T03:14:08;111.70;;;51.33;;
52798;SDS011;38667;42.872;74.622;2023-02-18T03:16:40;135.47;;;57.20;;
52798;SDS011;38667;42.872;74.622;2023-02-18T03:19:16;128.60;;;55.20;;
52798;SDS011;38667;42.872;74.622;2023-02-18T03:21:48;117.17;;;52.97;;
52798;SDS011;38667;42.872;74.622;2023-02-18T03:24:22;126.67;;;50.30;;
52798;SDS011;38667;42.872;74.622;2023-02-18T03:26:51;111.80;;;48.20;;
52798;SDS011;38667;42.872;74.622;2023-02-18T03:29:21;97.13;;;41.60;;
52798;SDS011;38667;42.872;74.622;2023-02-18T03:31:49;83.93;;;36.43;;
52798;SDS011;38667;42.872;74.622;2023-02-18T03:34:21;86.53;;;37.43;;
52798;SDS011;38667;42.872;74.622;2023-02-18T03:36:52;86.23;;;39.37;;
52798;SDS011;38667;42.872;74.622;2023-02-18T03:39:20;85.30;;;36.87;;
52798;SDS011;38667;42.872;74.622;2023-02-18T03:41:49;59.50;;;28.83;;
52798;SDS011;38667;42.872;74.622;2023-02-18T03:44:16;63.40;;;30.20;;
52798;SDS011;38667;42.872;74.622;2023-02-18T03:46:42;76.97;;;30.73;;
52798;SDS011;38667;42.872;74.622;2023-02-18T03:49:09;54.37;;;26.03;;
52798;SDS011;38667;42.872;74.622;2023-02-18T03:51:36;64.90;;;27.27;;
52798;SDS011;38667;42.872;74.622;2023-02-18T03:54:04;63.90;;;29.37;;
52798;SDS011;38667;42.872;74.622;2023-02-18T03:56:30;97.87;;;38.30;;
52798;SDS011;38667;42.872;74.622;2023-02-18T03:58:57;89.23;;;40.63;;
52798;SDS011;38667;42.872;74.622;2023-02-18T04:01:23;98.00;;;41.83;;
52798;SDS011;38667;42.872;74.622;2023-02-18T04:03:50;116.03;;;47.67;;
52798;SDS011;38667;42.872;74.622;2023-02-18T04:06:16;107.80;;;44.67;;
52798;SDS011;38667;42.872;74.622;2023-02-18T04:08:43;84.67;;;39.40;;
52798;SDS011;38667;42.872;74.622;2023-02-18T04:11:10;78.90;;;37.17;;
52798;SDS011;38667;42.872;74.622;2023-02-18T04:13:37;90.80;;;37.30;;
52798;SDS011;38667;42.872;74.622;2023-02-18T04:16:03;87.70;;;37.80;;
52798;SDS011;38667;42.872;74.622;2023-02-18T04:18:30;112.83;;;43.40;;
52798;SDS011;38667;42.872;74.622;2023-02-18T04:20:56;82.63;;;37.07;;
52798;SDS011;38667;42.872;74.622;2023-02-18T04:23:23;75.60;;;34.00;;
52798;SDS011;38667;42.872;74.622;2023-02-18T04:25:49;62.77;;;31.20;;
52798;SDS011;38667;42.872;74.622;2023-02-18T04:28:17;79.47;;;33.63;;
52798;SDS011;38667;42.872;74.622;2023-02-18T04:30:44;154.97;;;50.17;;
52798;SDS011;38667;42.872;74.622;2023-02-18T04:33:11;154.37;;;51.23;;
52798;SDS011;38667;42.872;74.622;2023-02-18T04:35:38;102.57;;;42.97;;
52798;SDS011;38667;42.872;74.622;2023-02-18T04:38:04;170.30;;;67.33;;
52798;SDS011;38667;42.872;74.622;2023-02-18T04:40:31;88.63;;;38.37;;
52798;SDS011;38667;42.872;74.622;2023-02-18T04:42:58;93.67;;;35.83;;
52798;SDS011;38667;42.872;74.622;2023-02-18T04:45:26;78.90;;;32.97;;
52798;SDS011;38667;42.872;74.622;2023-02-18T04:47:53;72.53;;;30.67;;
52798;SDS011;38667;42.872;74.622;2023-02-18T04:50:20;86.77;;;37.10;;
52798;SDS011;38667;42.872;74.622;2023-02-18T04:52:46;93.77;;;39.20;;
52798;SDS011;38667;42.872;74.622;2023-02-18T04:55:12;103.50;;;44.70;;
52798;SDS011;38667;42.872;74.622;2023-02-18T04:57:39;100.97;;;44.20;;
52798;SDS011;38667;42.872;74.622;2023-02-18T05:00:06;98.13;;;44.33;;
52798;SDS011;38667;42.872;74.622;2023-02-18T05:02:35;97.90;;;44.67;;
52798;SDS011;38667;42.872;74.622;2023-02-18T05:05:02;98.70;;;43.03;;
52798;SDS011;38667;42.872;74.622;2023-02-18T05:07:28;89.97;;;43.03;;
52798;SDS011;38667;42.872;74.622;2023-02-18T05:09:54;94.53;;;40.87;;
52798;SDS011;38667;42.872;74.622;2023-02-18T05:12:21;98.43;;;41.90;;
52798;SDS011;38667;42.872;74.622;2023-02-18T05:14:47;96.90;;;41.90;;
52798;SDS011;38667;42.872;74.622;2023-02-18T05:17:13;96.73;;;41.97;;
52798;SDS011;38667;42.872;74.622;2023-02-18T05:19:41;96.47;;;41.27;;
52798;SDS011;38667;42.872;74.622;2023-02-18T05:22:08;96.70;;;42.43;;
52798;SDS011;38667;42.872;74.622;2023-02-18T05:24:34;98.13;;;44.00;;
52798;SDS011;38667;42.872;74.622;2023-02-18T05:27:00;109.20;;;43.87;;
52798;SDS011;38667;42.872;74.622;2023-02-18T05:29:27;96.33;;;41.07;;
52798;SDS011;38667;42.872;74.622;2023-02-18T05:31:53;84.50;;;38.30;;
52798;SDS011;38667;42.872;74.622;2023-02-18T05:34:19;88.97;;;39.90;;
52798;SDS011;38667;42.872;74.622;2023-02-18T05:36:47;106.43;;;44.47;;
52798;SDS011;38667;42.872;74.622;2023-02-18T05:39:13;92.80;;;39.63;;
52798;SDS011;38667;42.872;74.622;2023-02-18T05:41:40;88.83;;;40.97;;
52798;SDS011;38667;42.872;74.622;2023-02-18T05:44:06;95.80;;;42.40;;
52798;SDS011;38667;42.872;74.622;2023-02-18T05:46:32;133.90;;;56.73;;
52798;SDS011;38667;42.872;74.622;2023-02-18T05:48:59;141.30;;;59.07;;
52798;SDS011;38667;42.872;74.622;2023-02-18T05:51:25;135.03;;;57.77;;
52798;SDS011;38667;42.872;74.622;2023-02-18T05:53:53;135.07;;;56.50;;
52798;SDS011;38667;42.872;74.622;2023-02-18T05:56:19;125.63;;;54.57;;
52798;SDS011;38667;42.872;74.622;2023-02-18T05:58:46;130.20;;;52.60;;
52798;SDS011;38667;42.872;74.622;2023-02-18T06:01:12;142.27;;;62.13;;
52798;SDS011;38667;42.872;74.622;2023-02-18T06:03:38;132.23;;;55.37;;
52798;SDS011;38667;42.872;74.622;2023-02-18T06:06:05;121.10;;;54.80;;
52798;SDS011;38667;42.872;74.622;2023-02-18T06:08:32;130.93;;;57.03;;
52798;SDS011;38667;42.872;74.622;2023-02-18T06:11:00;125.60;;;55.13;;
52798;SDS011;38667;42.872;74.622;2023-02-18T06:13:26;123.13;;;51.37;;
52798;SDS011;38667;42.872;74.622;2023-02-18T06:15:52;103.67;;;45.90;;
52798;SDS011;38667;42.872;74.622;2023-02-18T06:18:19;98.80;;;43.43;;
52798;SDS011;38667;42.872;74.622;2023-02-18T06:20:45;93.77;;;41.60;;
52798;SDS011;38667;42.872;74.622;2023-02-18T06:23:12;83.70;;;38.47;;
52798;SDS011;38667;42.872;74.622;2023-02-18T06:25:38;72.10;;;35.03;;
52798;SDS011;38667;42.872;74.622;2023-02-18T06:28:06;60.50;;;28.40;;
52798;SDS011;38667;42.872;74.622;2023-02-18T06:30:33;61.67;;;27.33;;
52798;SDS011;38667;42.872;74.622;2023-02-18T06:32:59;51.87;;;25.70;;
52798;SDS011;38667;42.872;74.622;2023-02-18T06:35:25;46.83;;;22.93;;
52798;SDS011;38667;42.872;74.622;2023-02-18T06:37:51;37.30;;;17.13;;
52798;SDS011;38667;42.872;74.622;2023-02-18T06:40:18;36.87;;;18.93;;
52798;SDS011;38667;42.872;74.622;2023-02-18T06:42:44;33.33;;;18.43;;
52798;SDS011;38667;42.872;74.622;2023-02-18T06:45:12;30.73;;;15.07;;
52798;SDS011;38667;42.872;74.622;2023-02-18T06:47:38;32.77;;;17.00;;
52798;SDS011;38667;42.872;74.622;2023-02-18T06:50:05;31.67;;;18.07;;
52798;SDS011;38667;42.872;74.622;2023-02-18T06:52:32;36.90;;;19.87;;
52798;SDS011;38667;42.872;74.622;2023-02-18T06:54:59;35.70;;;18.83;;
52798;SDS011;38667;42.872;74.622;2023-02-18T06:57:26;34.50;;;18.97;;
52798;SDS011;38667;42.872;74.622;2023-02-18T06:59:52;35.73;;;18.80;;
52798;SDS011;38667;42.872;74.622;2023-02-18T07:02:20;31.20;;;18.43;;
52798;SDS011;38667;42.872;74.622;2023-02-18T07:04:46;36.40;;;18.97;;
52798;SDS011;38667;42.872;74.622;2023-02-18T07:07:12;36.80;;;20.30;;
52798;SDS011;38667;42.872;74.622;2023-02-18T07:09:39;35.87;;;19.20;;
52798;SDS011;38667;42.872;74.622;2023-02-18T07:12:05;39.03;;;22.07;;
52798;SDS011;38667;42.872;74.622;2023-02-18T07:14:31;48.07;;;25.90;;
52798;SDS011;38667;42.872;74.622;2023-02-18T07:16:58;55.73;;;29.13;;
52798;SDS011;38667;42.872;74.622;2023-02-18T07:19:26;64.47;;;31.80;;
52798;SDS011;38667;42.872;74.622;2023-02-18T07:21:52;59.57;;;33.90;;
52798;SDS011;38667;42.872;74.622;2023-02-18T07:24:18;73.43;;;38.17;;
52798;SDS011;38667;42.872;74.622;2023-02-18T07:26:45;74.50;;;37.93;;
52798;SDS011;38667;42.872;74.622;2023-02-18T07:29:11;79.17;;;38.83;;
52798;SDS011;38667;42.872;74.622;2023-02-18T07:31:37;79.40;;;38.67;;
52798;SDS011;38667;42.872;74.622;2023-02-18T07:34:04;74.03;;;37.07;;
52798;SDS011;38667;42.872;74.622;2023-02-18T07:36:31;86.23;;;41.73;;
52798;SDS011;38667;42.872;74.622;2023-02-18T07:38:58;98.37;;;45.77;;
52798;SDS011;38667;42.872;74.622;2023-02-18T07:41:24;89.20;;;42.00;;
52798;SDS011;38667;42.872;74.622;2023-02-18T07:43:50;103.50;;;45.83;;
52798;SDS011;38667;42.872;74.622;2023-02-18T07:46:17;94.77;;;45.90;;
52798;SDS011;38667;42.872;74.622;2023-02-18T07:48:43;99.57;;;46.83;;
52798;SDS011;38667;42.872;74.622;2023-02-18T07:51:10;123.00;;;51.50;;
52798;SDS011;38667;42.872;74.622;2023-02-18T07:53:38;118.97;;;51.90;;
52798;SDS011;38667;42.872;74.622;2023-02-18T07:56:05;122.10;;;54.43;;
52798;SDS011;38667;42.872;74.622;2023-02-18T07:58:33;161.77;;;66.70;;
52798;SDS011;38667;42.872;74.622;2023-02-18T08:01:03;163.87;;;70.10;;
52798;SDS011;38667;42.872;74.622;2023-02-18T08:03:31;198.73;;;80.70;;
52798;SDS011;38667;42.872;74.622;2023-02-18T08:05:57;198.73;;;77.73;;
52798;SDS011;38667;42.872;74.622;2023-02-18T08:08:24;186.37;;;77.33;;
52798;SDS011;38667;42.872;74.622;2023-02-18T08:10:54;200.90;;;79.13;;
52798;SDS011;38667;42.872;74.622;2023-02-18T08:13:21;204.53;;;77.53;;
52798;SDS011;38667;42.872;74.622;2023-02-18T08:15:48;206.07;;;77.30;;
52798;SDS011;38667;42.872;74.622;2023-02-18T08:18:14;192.77;;;72.73;;
52798;SDS011;38667;42.872;74.622;2023-02-18T08:20:43;180.87;;;69.50;;
52798;SDS011;38667;42.872;74.622;2023-02-18T08:23:09;190.03;;;68.57;;
52798;SDS011;38667;42.872;74.622;2023-02-18T08:25:36;200.87;;;73.03;;
52798;SDS011;38667;42.872;74.622;2023-02-18T08:28:05;196.13;;;71.73;;
52798;SDS011;38667;42.872;74.622;2023-02-18T08:30:31;199.67;;;70.10;;
52798;SDS011;38667;42.872;74.622;2023-02-18T08:32:57;194.90;;;69.93;;
52798;SDS011;38667;42.872;74.622;2023-02-18T08:35:23;179.83;;;67.43;;
52798;SDS011;38667;42.872;74.622;2023-02-18T08:37:50;190.43;;;69.50;;
52798;SDS011;38667;42.872;74.622;2023-02-18T08:40:16;200.57;;;70.57;;
52798;SDS011;38667;42.872;74.622;2023-02-18T08:42:43;189.33;;;67.70;;
52798;SDS011;38667;42.872;74.622;2023-02-18T08:45:10;191.97;;;67.77;;
52798;SDS011;38667;42.872;74.622;2023-02-18T08:47:37;190.43;;;66.97;;
52798;SDS011;38667;42.872;74.622;2023-02-18T08:50:03;198.73;;;70.23;;
52798;SDS011;38667;42.872;74.622;2023-02-18T08:52:30;193.27;;;69.43;;
52798;SDS011;38667;42.872;74.622;2023-02-18T08:54:56;187.87;;;66.73;;
52798;SDS011;38667;42.872;74.622;2023-02-18T08:57:23;176.00;;;65.53;;
52798;SDS011;38667;42.872;74.622;2023-02-18T08:59:49;169.47;;;62.77;;
52798;SDS011;38667;42.872;74.622;2023-02-18T09:02:17;155.60;;;55.73;;
52798;SDS011;38667;42.872;74.622;2023-02-18T09:04:43;145.67;;;54.77;;
52798;SDS011;38667;42.872;74.622;2023-02-18T09:07:10;143.83;;;54.93;;
52798;SDS011;38667;42.872;74.622;2023-02-18T09:09:36;142.80;;;54.00;;
52798;SDS011;38667;42.872;74.622;2023-02-18T09:12:04;138.93;;;54.10;;
52798;SDS011;38667;42.872;74.622;2023-02-18T09:14:30;136.37;;;54.00;;
52798;SDS011;38667;42.872;74.622;2023-02-18T09:16:57;127.97;;;48.17;;
52798;SDS011;38667;42.872;74.622;2023-02-18T09:19:25;117.33;;;47.87;;
52798;SDS011;38667;42.872;74.622;2023-02-18T09:21:51;132.03;;;50.70;;
52798;SDS011;38667;42.872;74.622;2023-02-18T09:24:18;126.03;;;49.00;;
52798;SDS011;38667;42.872;74.622;2023-02-18T09:26:44;116.57;;;46.50;;
52798;SDS011;38667;42.872;74.622;2023-02-18T09:29:10;123.03;;;48.43;;
52798;SDS011;38667;42.872;74.622;2023-02-18T09:31:36;114.20;;;48.77;;
52798;SDS011;38667;42.872;74.622;2023-02-18T09:34:03;125.27;;;50.33;;
52798;SDS011;38667;42.872;74.622;2023-02-18T09:36:31;120.80;;;47.70;;
52798;SDS011;38667;42.872;74.622;2023-02-18T09:38:58;111.17;;;46.80;;
52798;SDS011;38667;42.872;74.622;2023-02-18T09:41:29;112.50;;;49.50;;
52798;SDS011;38667;42.872;74.622;2023-02-18T09:44:02;109.30;;;47.57;;
52798;SDS011;38667;42.872;74.622;2023-02-18T09:46:35;114.40;;;49.00;;
52798;SDS011;38667;42.872;74.622;2023-02-18T09:49:06;114.83;;;49.30;;
52798;SDS011;38667;42.872;74.622;2023-02-18T09:51:42;107.00;;;48.00;;
52798;SDS011;38667;42.872;74.622;2023-02-18T09:54:09;118.53;;;48.00;;
52798;SDS011;38667;42.872;74.622;2023-02-18T09:56:36;114.03;;;50.93;;
52798;SDS011;38667;42.872;74.622;2023-02-18T09:59:05;123.80;;;52.10;;
52798;SDS011;38667;42.872;74.622;2023-02-18T10:01:37;116.23;;;50.60;;
52798;SDS011;38667;42.872;74.622;2023-02-18T10:04:06;115.10;;;51.23;;
52798;SDS011;38667;42.872;74.622;2023-02-18T10:06:39;118.23;;;51.03;;
52798;SDS011;38667;42.872;74.622;2023-02-18T10:09:11;107.03;;;48.03;;
52798;SDS011;38667;42.872;74.622;2023-02-18T10:11:42;94.83;;;44.57;;
52798;SDS011;38667;42.872;74.622;2023-02-18T10:14:13;98.03;;;44.30;;
52798;SDS011;38667;42.872;74.622;2023-02-18T10:16:40;97.03;;;42.77;;
52798;SDS011;38667;42.872;74.622;2023-02-18T10:19:13;97.07;;;41.70;;
52798;SDS011;38667;42.872;74.622;2023-02-18T10:21:50;74.43;;;36.57;;
52798;SDS011;38667;42.872;74.622;2023-02-18T10:24:19;75.77;;;35.70;;
52798;SDS011;38667;42.872;74.622;2023-02-18T10:26:51;78.53;;;36.13;;
52798;SDS011;38667;42.872;74.622;2023-02-18T10:29:18;84.00;;;37.23;;
52798;SDS011;38667;42.872;74.622;2023-02-18T10:31:47;76.67;;;36.00;;
52798;SDS011;38667;42.872;74.622;2023-02-18T10:34:22;75.70;;;37.80;;
52798;SDS011;38667;42.872;74.622;2023-02-18T10:36:57;82.13;;;39.97;;
52798;SDS011;38667;42.872;74.622;2023-02-18T10:39:37;88.90;;;39.00;;
52798;SDS011;38667;42.872;74.622;2023-02-18T10:42:17;81.93;;;37.47;;
52798;SDS011;38667;42.872;74.622;2023-02-18T10:44:57;88.93;;;38.93;;
52798;SDS011;38667;42.872;74.622;2023-02-18T10:47:33;88.43;;;42.10;;
52798;SDS011;38667;42.872;74.622;2023-02-18T10:50:07;94.10;;;42.67;;
52798;SDS011;38667;42.872;74.622;2023-02-18T10:52:37;94.07;;;44.40;;
52798;SDS011;38667;42.872;74.622;2023-02-18T10:55:07;95.83;;;44.50;;
52798;SDS011;38667;42.872;74.622;2023-02-18T10:57:35;93.73;;;40.97;;
52798;SDS011;38667;42.872;74.622;2023-02-18T11:00:14;94.70;;;43.83;;
52798;SDS011;38667;42.872;74.622;2023-02-18T11:02:41;103.63;;;47.73;;
52798;SDS011;38667;42.872;74.622;2023-02-18T11:05:15;94.77;;;45.63;;
52798;SDS011;38667;42.872;74.622;2023-02-18T11:07:49;93.50;;;45.57;;
52798;SDS011;38667;42.872;74.622;2023-02-18T11:10:17;96.23;;;46.10;;
52798;SDS011;38667;42.872;74.622;2023-02-18T11:12:49;84.17;;;39.30;;
52798;SDS011;38667;42.872;74.622;2023-02-18T11:15:20;76.57;;;38.33;;
52798;SDS011;38667;42.872;74.622;2023-02-18T11:17:48;71.60;;;36.17;;
52798;SDS011;38667;42.872;74.622;2023-02-18T11:20:23;80.10;;;41.17;;
52798;SDS011;38667;42.872;74.622;2023-02-18T11:25:57;72.13;;;35.70;;
52798;SDS011;38667;42.872;74.622;2023-02-18T11:28:27;75.30;;;35.03;;
52798;SDS011;38667;42.872;74.622;2023-02-18T11:31:09;78.27;;;36.43;;
52798;SDS011;38667;42.872;74.622;2023-02-18T11:33:42;73.10;;;33.50;;
52798;SDS011;38667;42.872;74.622;2023-02-18T11:36:15;53.57;;;28.03;;
52798;SDS011;38667;42.872;74.622;2023-02-18T11:38:48;55.60;;;28.17;;
52798;SDS011;38667;42.872;74.622;2023-02-18T11:41:17;53.77;;;25.80;;
52798;SDS011;38667;42.872;74.622;2023-02-18T11:43:47;55.60;;;29.53;;
52798;SDS011;38667;42.872;74.622;2023-02-18T11:46:17;52.03;;;26.17;;
52798;SDS011;38667;42.872;74.622;2023-02-18T11:48:45;44.50;;;24.80;;
52798;SDS011;38667;42.872;74.622;2023-02-18T11:51:15;51.33;;;25.87;;
52798;SDS011;38667;42.872;74.622;2023-02-18T11:53:54;53.83;;;27.43;;
52798;SDS011;38667;42.872;74.622;2023-02-18T11:56:26;56.20;;;30.73;;
52798;SDS011;38667;42.872;74.622;2023-02-18T11:58:54;51.77;;;27.93;;
52798;SDS011;38667;42.872;74.622;2023-02-18T12:01:26;52.83;;;29.07;;
52798;SDS011;38667;42.872;74.622;2023-02-18T12:04:03;56.43;;;28.77;;
52798;SDS011;38667;42.872;74.622;2023-02-18T12:06:33;56.57;;;30.50;;
52798;SDS011;38667;42.872;74.622;2023-02-18T12:09:06;58.37;;;31.07;;
52798;SDS011;38667;42.872;74.622;2023-02-18T12:11:40;66.47;;;34.50;;
52798;SDS011;38667;42.872;74.622;2023-02-18T12:14:10;64.87;;;33.40;;
52798;SDS011;38667;42.872;74.622;2023-02-18T12:16:43;68.37;;;33.27;;
52798;SDS011;38667;42.872;74.622;2023-02-18T12:19:23;67.37;;;34.90;;
52798;SDS011;38667;42.872;74.622;2023-02-18T12:22:03;63.40;;;31.83;;
52798;SDS011;38667;42.872;74.622;2023-02-18T12:24:42;65.73;;;34.57;;
52798;SDS011;38667;42.872;74.622;2023-02-18T12:27:23;69.00;;;34.93;;
52798;SDS011;38667;42.872;74.622;2023-02-18T12:30:05;65.87;;;35.40;;
52798;SDS011;38667;42.872;74.622;2023-02-18T12:32:54;79.30;;;39.80;;
52798;SDS011;38667;42.872;74.622;2023-02-18T12:35:35;79.70;;;40.30;;
52798;SDS011;38667;42.872;74.622;2023-02-18T12:38:29;85.37;;;43.40;;
52798;SDS011;38667;42.872;74.622;2023-02-18T12:41:20;95.97;;;48.20;;
52798;SDS011;38667;42.872;74.622;2023-02-18T12:43:57;107.03;;;50.37;;
52798;SDS011;38667;42.872;74.622;2023-02-18T12:46:33;97.37;;;49.40;;
52798;SDS011;38667;42.872;74.622;2023-02-18T12:52:11;106.53;;;53.40;;
52798;SDS011;38667;42.872;74.622;2023-02-18T12:55:02;117.70;;;54.43;;
52798;SDS011;38667;42.872;74.622;2023-02-18T12:57:53;120.73;;;53.13;;
52798;SDS011;38667;42.872;74.622;2023-02-18T13:00:41;108.50;;;50.77;;
52798;SDS011;38667;42.872;74.622;2023-02-18T13:03:36;115.70;;;52.40;;
52798;SDS011;38667;42.872;74.622;2023-02-18T13:06:19;118.17;;;52.53;;
52798;SDS011;38667;42.872;74.622;2023-02-18T13:09:04;115.70;;;53.00;;
52798;SDS011;38667;42.872;74.622;2023-02-18T13:11:35;112.97;;;49.90;;
52798;SDS011;38667;42.872;74.622;2023-02-18T13:14:12;115.87;;;54.73;;
52798;SDS011;38667;42.872;74.622;2023-02-18T13:16:43;123.50;;;55.83;;
52798;SDS011;38667;42.872;74.622;2023-02-18T13:19:13;119.30;;;55.83;;
52798;SDS011;38667;42.872;74.622;2023-02-18T13:21:44;116.47;;;52.60;;
52798;SDS011;38667;42.872;74.622;2023-02-18T13:24:14;119.40;;;54.70;;
52798;SDS011;38667;42.872;74.622;2023-02-18T13:26:47;138.10;;;61.40;;
52798;SDS011;38667;42.872;74.622;2023-02-18T13:29:21;127.30;;;57.93;;
52798;SDS011;38667;42.872;74.622;2023-02-18T13:31:56;128.47;;;57.13;;
52798;SDS011;38667;42.872;74.622;2023-02-18T13:34:31;127.93;;;54.50;;
52798;SDS011;38667;42.872;74.622;2023-02-18T13:37:03;129.00;;;56.97;;
52798;SDS011;38667;42.872;74.622;2023-02-18T13:39:35;121.70;;;53.77;;
52798;SDS011;38667;42.872;74.622;2023-02-18T13:42:11;127.40;;;53.20;;
52798;SDS011;38667;42.872;74.622;2023-02-18T13:45:06;128.33;;;54.47;;
52798;SDS011;38667;42.872;74.622;2023-02-18T13:47:56;125.37;;;51.83;;
52798;SDS011;38667;42.872;74.622;2023-02-18T13:50:25;142.73;;;53.87;;
52798;SDS011;38667;42.872;74.622;2023-02-18T13:52:58;138.80;;;53.87;;
52798;SDS011;38667;42.872;74.622;2023-02-18T13:55:38;141.03;;;55.20;;
52798;SDS011;38667;42.872;74.622;2023-02-18T13:58:10;136.20;;;53.77;;
52798;SDS011;38667;42.872;74.622;2023-02-18T14:00:43;131.77;;;54.67;;
52798;SDS011;38667;42.872;74.622;2023-02-18T14:03:30;131.13;;;53.23;;
52798;SDS011;38667;42.872;74.622;2023-02-18T14:05:59;138.63;;;54.03;;
52798;SDS011;38667;42.872;74.622;2023-02-18T14:08:29;132.93;;;54.33;;
52798;SDS011;38667;42.872;74.622;2023-02-18T14:17:29;119.77;;;50.83;;
52798;SDS011;38667;42.872;74.622;2023-02-18T14:23:10;125.17;;;51.40;;
52798;SDS011;38667;42.872;74.622;2023-02-18T14:26:04;129.00;;;50.70;;
52798;SDS011;38667;42.872;74.622;2023-02-18T14:28:36;129.03;;;50.90;;
52798;SDS011;38667;42.872;74.622;2023-02-18T14:31:15;129.47;;;50.57;;
52798;SDS011;38667;42.872;74.622;2023-02-18T14:33:52;133.63;;;52.67;;
52798;SDS011;38667;42.872;74.622;2023-02-18T14:36:48;136.63;;;54.90;;
52798;SDS011;38667;42.872;74.622;2023-02-18T14:39:27;143.03;;;58.10;;
52798;SDS011;38667;42.872;74.622;2023-02-18T14:42:02;137.80;;;57.17;;
52798;SDS011;38667;42.872;74.622;2023-02-18T14:44:42;138.83;;;57.53;;